createdAt,value
2023-04-05T00:00:32.016Z,65.47
2023-04-05T00:01:32.012Z,65.28
2023-04-05T00:02:32.032Z,65.37
2023-04-05T00:03:32.107Z,65.19
2023-04-05T00:04:32.196Z,65.28
2023-04-05T00:05:32.026Z,65.19
2023-04-05T00:06:32.064Z,65.47
2023-04-05T00:07:32.033Z,65.37
2023-04-05T00:08:32.041Z,65.37
2023-04-05T00:09:32.042Z,65.19
2023-04-05T00:10:32.049Z,65.37
2023-04-05T00:11:32.048Z,65.47
2023-04-05T00:12:32.054Z,65.00
2023-04-05T00:13:32.052Z,65.37
2023-04-05T00:14:32.054Z,65.37
2023-04-05T00:15:32.064Z,65.00
2023-04-05T00:16:32.137Z,65.19
2023-04-05T00:17:32.082Z,65.00
2023-04-05T00:18:32.067Z,64.90
2023-04-05T00:19:32.072Z,65.47
2023-04-05T00:20:32.076Z,65.37
2023-04-05T00:21:32.084Z,65.09
2023-04-05T00:22:32.125Z,65.28
2023-04-05T00:23:32.086Z,65.56
2023-04-05T00:24:32.094Z,65.28
2023-04-05T00:25:32.089Z,65.47
2023-04-05T00:26:32.107Z,65.28
2023-04-05T00:27:32.107Z,65.28
2023-04-05T00:28:32.107Z,65.37
2023-04-05T00:29:32.101Z,65.28
2023-04-05T00:30:32.102Z,65.28
2023-04-05T00:31:32.146Z,65.47
2023-04-05T00:32:32.150Z,65.66
2023-04-05T00:33:32.126Z,65.85
2023-04-05T00:34:32.123Z,65.95
2023-04-05T00:35:32.178Z,65.66
2023-04-05T00:36:32.130Z,65.66
2023-04-05T00:37:32.138Z,65.66
2023-04-05T00:38:32.157Z,65.95
2023-04-05T00:39:32.143Z,65.95
2023-04-05T00:40:32.143Z,65.95
2023-04-05T00:41:32.141Z,65.85
2023-04-05T00:42:32.153Z,65.95
2023-04-05T00:43:32.152Z,65.85
2023-04-05T00:44:32.158Z,66.33
2023-04-05T00:45:32.157Z,66.52
2023-04-05T00:46:32.267Z,65.85
2023-04-05T00:47:32.217Z,65.85
2023-04-05T00:48:32.158Z,65.85
2023-04-05T00:49:32.171Z,65.75
2023-04-05T00:50:32.172Z,66.14
2023-04-05T00:51:32.166Z,65.75
2023-04-05T00:52:32.189Z,65.85
2023-04-05T00:53:32.219Z,66.52
2023-04-05T00:54:32.212Z,66.42
2023-04-05T00:55:32.185Z,66.52
2023-04-05T00:56:32.191Z,66.14
2023-04-05T00:57:32.194Z,66.42
2023-04-05T00:58:32.188Z,66.14
2023-04-05T00:59:32.251Z,66.23
2023-04-05T01:00:32.200Z,66.71
2023-04-05T01:01:32.243Z,66.52
2023-04-05T01:02:32.267Z,66.99
2023-04-05T01:03:32.203Z,66.89
2023-04-05T01:04:32.250Z,66.71
2023-04-05T01:05:32.207Z,66.71
2023-04-05T01:06:32.216Z,66.39
2023-04-05T01:07:32.215Z,66.48
2023-04-05T01:08:32.221Z,66.67
2023-04-05T01:09:32.228Z,67.24
2023-04-05T01:10:32.319Z,67.24
2023-04-05T01:11:32.280Z,66.67
2023-04-05T01:12:32.226Z,66.67
2023-04-05T01:13:32.234Z,67.24
2023-04-05T01:14:32.228Z,67.14
2023-04-05T01:15:32.282Z,66.96
2023-04-05T01:16:32.240Z,67.05
2023-04-05T01:17:32.279Z,67.05
2023-04-05T01:18:32.246Z,67.24
2023-04-05T01:19:32.245Z,67.43
2023-04-05T01:20:32.245Z,67.62
2023-04-05T01:21:32.257Z,67.43
2023-04-05T01:22:32.254Z,67.24
2023-04-05T01:23:32.267Z,67.24
2023-04-05T01:24:32.287Z,67.14
2023-04-05T01:25:32.256Z,67.05
2023-04-05T01:26:32.429Z,67.05
2023-04-05T01:27:32.262Z,67.14
2023-04-05T01:28:32.264Z,67.71
2023-04-05T01:29:32.274Z,67.24
2023-04-05T01:30:32.278Z,67.52
2023-04-05T01:31:32.324Z,67.43
2023-04-05T01:32:32.361Z,67.14
2023-04-05T01:33:32.279Z,67.05
2023-04-05T01:34:32.287Z,67.33
2023-04-05T01:35:32.291Z,67.14
2023-04-05T01:36:32.285Z,67.43
2023-04-05T01:37:32.289Z,67.71
2023-04-05T01:38:32.290Z,67.52
2023-04-05T01:39:32.300Z,67.43
2023-04-05T01:40:32.303Z,67.43
2023-04-05T01:41:32.305Z,67.43
2023-04-05T01:42:32.341Z,67.52
2023-04-05T01:43:32.316Z,67.43
2023-04-05T01:44:32.314Z,67.24
2023-04-05T01:45:32.316Z,67.62
2023-04-05T01:46:32.326Z,67.71
2023-04-05T01:47:32.350Z,67.62
2023-04-05T01:48:32.319Z,67.52
2023-04-05T01:49:32.321Z,67.33
2023-04-05T01:50:32.332Z,67.81
2023-04-05T01:51:33.199Z,67.71
2023-04-05T01:52:32.336Z,67.43
2023-04-05T01:53:32.332Z,67.43
2023-04-05T01:54:32.341Z,67.43
2023-04-05T01:55:32.338Z,67.43
2023-04-05T01:56:32.341Z,67.43
2023-04-05T01:57:32.340Z,67.43
2023-04-05T01:58:32.373Z,67.33
2023-04-05T01:59:32.493Z,67.71
2023-04-05T02:00:32.389Z,67.43
2023-04-05T02:01:32.461Z,67.71
2023-04-05T02:02:32.468Z,67.81
2023-04-05T02:03:32.424Z,67.81
2023-04-05T02:04:32.365Z,67.81
2023-04-05T02:05:32.362Z,67.90
2023-04-05T02:06:32.379Z,67.81
2023-04-05T02:07:32.377Z,68.00
2023-04-05T02:08:32.367Z,68.29
2023-04-05T02:09:32.379Z,68.10
2023-04-05T02:10:32.375Z,68.00
2023-04-05T02:11:32.389Z,68.10
2023-04-05T02:12:32.394Z,67.90
2023-04-05T02:13:32.385Z,67.90
2023-04-05T02:14:32.404Z,68.29
2023-04-05T02:15:32.386Z,68.57
2023-04-05T02:16:32.426Z,68.48
2023-04-05T02:17:32.436Z,68.38
2023-04-05T02:18:32.407Z,68.48
2023-04-05T02:19:32.403Z,68.38
2023-04-05T02:20:32.406Z,68.38
2023-04-05T02:21:32.400Z,68.57
2023-04-05T02:22:32.415Z,68.38
2023-04-05T02:23:32.405Z,68.25
2023-04-05T02:24:32.413Z,68.44
2023-04-05T02:25:32.409Z,68.85
2023-04-05T02:26:32.421Z,68.57
2023-04-05T02:27:32.422Z,69.10
2023-04-05T02:28:32.421Z,68.95
2023-04-05T02:29:32.421Z,69.10
2023-04-05T02:30:32.451Z,69.33
2023-04-05T02:31:32.455Z,69.23
2023-04-05T02:32:32.480Z,68.85
2023-04-05T02:33:32.560Z,68.82
2023-04-05T02:34:32.429Z,68.91
2023-04-05T02:35:32.461Z,69.23
2023-04-05T02:36:32.446Z,69.01
2023-04-05T02:37:32.454Z,68.95
2023-04-05T02:38:32.448Z,68.82
2023-04-05T02:39:32.444Z,69.13
2023-04-05T02:40:32.459Z,69.67
2023-04-05T02:41:32.458Z,69.38
2023-04-05T02:42:32.449Z,69.77
2023-04-05T02:43:32.460Z,69.38
2023-04-05T02:44:32.458Z,69.38
2023-04-05T02:45:32.480Z,69.48
2023-04-05T02:46:32.483Z,69.48
2023-04-05T02:47:32.522Z,69.48
2023-04-05T02:48:32.477Z,69.38
2023-04-05T02:49:32.475Z,69.57
2023-04-05T02:50:32.477Z,70.05
2023-04-05T02:51:32.477Z,69.86
2023-04-05T02:52:32.496Z,69.77
2023-04-05T02:53:32.485Z,69.67
2023-04-05T02:54:32.482Z,70.24
2023-04-05T02:55:32.486Z,70.34
2023-04-05T02:56:32.478Z,70.53
2023-04-05T02:57:32.496Z,70.15
2023-04-05T02:58:32.520Z,70.53
2023-04-05T02:59:32.537Z,70.43
2023-04-05T03:00:32.512Z,70.24
2023-04-05T03:01:32.515Z,70.15
2023-04-05T03:02:32.576Z,70.43
2023-04-05T03:03:32.541Z,70.72
2023-04-05T03:04:32.503Z,70.72
2023-04-05T03:05:32.506Z,70.81
2023-04-05T03:06:32.512Z,70.90
2023-04-05T03:07:32.509Z,70.90
2023-04-05T03:08:32.512Z,70.90
2023-04-05T03:09:32.503Z,70.90
2023-04-05T03:10:32.508Z,70.90
2023-04-05T03:11:34.061Z,71.19
2023-04-05T03:12:32.518Z,71.09
2023-04-05T03:13:32.514Z,71.38
2023-04-05T03:14:32.514Z,71.28
2023-04-05T03:15:32.527Z,71.47
2023-04-05T03:16:32.548Z,71.38
2023-04-05T03:17:32.550Z,71.00
2023-04-05T03:18:32.687Z,71.28
2023-04-05T03:19:32.532Z,71.00
2023-04-05T03:20:32.534Z,71.38
2023-04-05T03:21:32.540Z,71.38
2023-04-05T03:22:32.533Z,71.66
2023-04-05T03:23:32.552Z,71.38
2023-04-05T03:24:32.535Z,71.00
2023-04-05T03:25:32.536Z,71.19
2023-04-05T03:26:32.565Z,71.19
2023-04-05T03:27:32.550Z,71.57
2023-04-05T03:28:32.658Z,71.76
2023-04-05T03:29:32.562Z,71.47
2023-04-05T03:30:32.548Z,71.19
2023-04-05T03:31:32.592Z,71.28
2023-04-05T03:32:32.583Z,71.76
2023-04-05T03:33:32.552Z,71.85
2023-04-05T03:34:32.586Z,71.76
2023-04-05T03:35:32.754Z,71.66
2023-04-05T03:36:32.569Z,71.47
2023-04-05T03:37:32.560Z,71.19
2023-04-05T03:38:32.570Z,71.19
2023-04-05T03:39:32.569Z,71.66
2023-04-05T03:40:32.573Z,71.85
2023-04-05T03:41:32.570Z,71.85
2023-04-05T03:42:32.570Z,71.85
2023-04-05T03:43:32.587Z,71.76
2023-04-05T03:44:32.576Z,71.66
2023-04-05T03:45:32.582Z,71.85
2023-04-05T03:46:32.658Z,71.76
2023-04-05T03:47:32.600Z,71.85
2023-04-05T03:48:32.597Z,71.76
2023-04-05T03:49:32.584Z,71.76
2023-04-05T03:50:32.616Z,71.76
2023-04-05T03:51:32.589Z,71.95
2023-04-05T03:52:32.605Z,71.76
2023-04-05T03:53:32.634Z,71.85
2023-04-05T03:54:32.596Z,71.57
2023-04-05T03:55:32.604Z,71.95
2023-04-05T03:56:32.608Z,71.66
2023-04-05T03:57:32.619Z,71.76
2023-04-05T03:58:32.602Z,72.00
2023-04-05T03:59:32.653Z,71.95
2023-04-05T04:00:32.609Z,71.66
2023-04-05T04:01:32.620Z,72.42
2023-04-05T04:02:32.703Z,72.57
2023-04-05T04:03:32.612Z,72.29
2023-04-05T04:04:32.636Z,72.14
2023-04-05T04:05:32.615Z,72.48
2023-04-05T04:06:32.739Z,72.67
2023-04-05T04:07:32.629Z,72.77
2023-04-05T04:08:32.616Z,72.57
2023-04-05T04:09:32.617Z,72.57
2023-04-05T04:10:32.625Z,73.14
2023-04-05T04:11:32.620Z,73.24
2023-04-05T04:12:32.621Z,73.14
2023-04-05T04:13:32.634Z,73.14
2023-04-05T04:14:32.625Z,73.61
2023-04-05T04:15:32.636Z,73.52
2023-04-05T04:16:32.670Z,73.43
2023-04-05T04:17:32.667Z,73.52
2023-04-05T04:18:32.631Z,73.52
2023-04-05T04:19:32.638Z,73.33
2023-04-05T04:20:32.656Z,73.43
2023-04-05T04:21:32.706Z,73.43
2023-04-05T04:22:32.666Z,73.43
2023-04-05T04:23:32.648Z,73.80
2023-04-05T04:24:32.716Z,74.37
2023-04-05T04:25:32.671Z,74.37
2023-04-05T04:26:32.656Z,73.99
2023-04-05T04:27:32.655Z,74.18
2023-04-05T04:28:32.664Z,73.71
2023-04-05T04:29:32.650Z,74.47
2023-04-05T04:30:32.651Z,74.75
2023-04-05T04:31:32.673Z,74.66
2023-04-05T04:32:32.708Z,74.56
2023-04-05T04:33:32.660Z,74.09
2023-04-05T04:34:32.661Z,74.66
2023-04-05T04:35:32.660Z,74.56
2023-04-05T04:36:32.662Z,74.66
2023-04-05T04:37:32.670Z,74.47
2023-04-05T04:38:32.698Z,74.56
2023-04-05T04:39:32.677Z,74.47
2023-04-05T04:40:32.685Z,74.66
2023-04-05T04:41:32.669Z,74.95
2023-04-05T04:42:32.683Z,75.04
2023-04-05T04:43:32.681Z,74.95
2023-04-05T04:44:32.685Z,75.13
2023-04-05T04:45:32.720Z,75.23
2023-04-05T04:46:32.682Z,75.13
2023-04-05T04:47:32.694Z,75.32
2023-04-05T04:48:32.688Z,75.42
2023-04-05T04:49:32.683Z,75.23
2023-04-05T04:50:32.704Z,75.13
2023-04-05T04:51:32.686Z,75.23
2023-04-05T04:52:32.686Z,75.60
2023-04-05T04:53:32.697Z,75.51
2023-04-05T04:54:32.720Z,75.51
2023-04-05T04:55:32.699Z,75.42
2023-04-05T04:56:32.699Z,75.51
2023-04-05T04:57:32.696Z,75.23
2023-04-05T04:58:32.696Z,75.51
2023-04-05T04:59:32.736Z,75.51
2023-04-05T05:00:32.701Z,75.51
2023-04-05T05:01:32.789Z,75.51
2023-04-05T05:02:32.774Z,75.51
2023-04-05T05:03:32.707Z,75.42
2023-04-05T05:04:32.745Z,75.32
2023-04-05T05:05:32.710Z,75.23
2023-04-05T05:06:32.722Z,75.32
2023-04-05T05:07:32.720Z,75.23
2023-04-05T05:08:32.723Z,75.60
2023-04-05T05:09:32.715Z,75.32
2023-04-05T05:10:32.751Z,75.23
2023-04-05T05:11:32.729Z,75.42
2023-04-05T05:12:32.726Z,75.42
2023-04-05T05:13:32.729Z,75.42
2023-04-05T05:14:32.726Z,75.32
2023-04-05T05:15:32.735Z,75.60
2023-04-05T05:16:32.751Z,75.23
2023-04-05T05:17:32.778Z,75.60
2023-04-05T05:18:32.748Z,75.42
2023-04-05T05:19:32.739Z,75.51
2023-04-05T05:20:32.751Z,75.23
2023-04-05T05:21:32.746Z,75.60
2023-04-05T05:22:32.749Z,75.70
2023-04-05T05:23:32.757Z,75.51
2023-04-05T05:24:32.748Z,75.32
2023-04-05T05:25:32.746Z,75.23
2023-04-05T05:26:32.764Z,75.04
2023-04-05T05:27:32.755Z,75.23
2023-04-05T05:28:32.753Z,75.51
2023-04-05T05:29:32.751Z,75.51
2023-04-05T05:30:32.758Z,75.32
2023-04-05T05:31:32.822Z,75.23
2023-04-05T05:32:32.798Z,75.51
2023-04-05T05:33:32.755Z,75.51
2023-04-05T05:34:32.762Z,75.32
2023-04-05T05:35:32.784Z,75.32
2023-04-05T05:36:32.757Z,75.45
2023-04-05T05:37:32.776Z,75.36
2023-04-05T05:38:32.767Z,75.55
2023-04-05T05:39:32.770Z,75.45
2023-04-05T05:40:32.763Z,75.17
2023-04-05T05:41:32.775Z,75.17
2023-04-05T05:42:32.787Z,74.88
2023-04-05T05:43:32.777Z,74.51
2023-04-05T05:44:32.771Z,74.41
2023-04-05T05:45:32.781Z,74.03
2023-04-05T05:46:32.868Z,74.22
2023-04-05T05:47:32.832Z,73.84
2023-04-05T05:48:32.779Z,74.03
2023-04-05T05:49:32.786Z,74.13
2023-04-05T05:50:32.786Z,73.94
2023-04-05T05:51:32.789Z,74.32
2023-04-05T05:52:32.799Z,74.22
2023-04-05T05:53:32.791Z,74.03
2023-04-05T05:54:32.796Z,73.84
2023-04-05T05:55:32.797Z,73.84
2023-04-05T05:56:32.798Z,73.65
2023-04-05T05:57:32.803Z,73.37
2023-04-05T05:58:32.823Z,73.37
2023-04-05T05:59:32.841Z,73.27
2023-04-05T06:00:32.802Z,73.08
2023-04-05T06:01:32.799Z,73.75
2023-04-05T06:02:32.878Z,73.65
2023-04-05T06:03:32.888Z,73.46
2023-04-05T06:04:32.834Z,73.65
2023-04-05T06:05:32.810Z,73.46
2023-04-05T06:06:32.809Z,73.79
2023-04-05T06:07:32.821Z,73.31
2023-04-05T06:08:32.821Z,72.84
2023-04-05T06:09:32.824Z,73.03
2023-04-05T06:10:32.824Z,73.22
2023-04-05T06:11:32.877Z,73.41
2023-04-05T06:12:32.828Z,73.22
2023-04-05T06:13:32.836Z,73.12
2023-04-05T06:14:32.852Z,73.12
2023-04-05T06:15:32.828Z,73.08
2023-04-05T06:16:32.881Z,73.22
2023-04-05T06:17:32.878Z,73.03
2023-04-05T06:18:32.835Z,72.36
2023-04-05T06:19:32.842Z,72.64
2023-04-05T06:20:32.849Z,72.74
2023-04-05T06:21:32.837Z,72.74
2023-04-05T06:22:32.859Z,72.64
2023-04-05T06:23:32.851Z,72.84
2023-04-05T06:24:32.866Z,72.74
2023-04-05T06:25:32.847Z,72.84
2023-04-05T06:26:32.848Z,72.74
2023-04-05T06:27:32.851Z,72.74
2023-04-05T06:28:32.854Z,72.45
2023-04-05T06:29:32.852Z,72.45
2023-04-05T06:30:32.889Z,72.55
2023-04-05T06:31:32.963Z,72.45
2023-04-05T06:32:32.906Z,72.45
2023-04-05T06:33:32.861Z,72.55
2023-04-05T06:34:32.862Z,72.36
2023-04-05T06:35:32.889Z,72.45
2023-04-05T06:36:32.873Z,72.36
2023-04-05T06:37:32.869Z,72.55
2023-04-05T06:38:32.873Z,72.36
2023-04-05T06:39:32.880Z,72.36
2023-04-05T06:40:32.884Z,72.36
2023-04-05T06:41:32.877Z,72.36
2023-04-05T06:42:32.884Z,72.45
2023-04-05T06:43:32.888Z,72.45
2023-04-05T06:44:32.890Z,72.27
2023-04-05T06:45:32.921Z,72.36
2023-04-05T06:46:32.908Z,72.36
2023-04-05T06:47:32.898Z,72.55
2023-04-05T06:48:32.889Z,72.27
2023-04-05T06:49:32.909Z,71.70
2023-04-05T06:50:32.913Z,71.83
2023-04-05T06:51:32.915Z,71.83
2023-04-05T06:52:32.907Z,72.11
2023-04-05T06:53:32.901Z,72.21
2023-04-05T06:54:32.905Z,71.73
2023-04-05T06:55:32.915Z,71.92
2023-04-05T06:56:32.910Z,71.92
2023-04-05T06:57:32.919Z,71.73
2023-04-05T06:58:32.930Z,71.73
2023-04-05T06:59:33.270Z,71.55
2023-04-05T07:00:32.918Z,71.45
2023-04-05T07:01:32.999Z,70.98
2023-04-05T07:02:35.563Z,70.88
2023-04-05T07:03:32.927Z,71.17
2023-04-05T07:04:32.943Z,70.69
2023-04-05T07:05:32.934Z,70.31
2023-04-05T07:06:32.934Z,70.21
2023-04-05T07:07:32.933Z,70.50
2023-04-05T07:08:32.936Z,70.50
2023-04-05T07:09:32.942Z,70.40
2023-04-05T07:10:32.936Z,70.40
2023-04-05T07:11:32.958Z,70.69
2023-04-05T07:12:32.941Z,70.50
2023-04-05T07:13:32.966Z,70.03
2023-04-05T07:14:32.952Z,70.44
2023-04-05T07:15:32.960Z,69.87
2023-04-05T07:16:33.001Z,69.78
2023-04-05T07:17:32.993Z,69.49
2023-04-05T07:18:32.981Z,69.59
2023-04-05T07:19:32.966Z,69.68
2023-04-05T07:20:32.966Z,68.92
2023-04-05T07:21:32.964Z,68.73
2023-04-05T07:22:32.964Z,68.92
2023-04-05T07:23:32.974Z,68.54
2023-04-05T07:24:32.973Z,68.16
2023-04-05T07:25:32.983Z,68.35
2023-04-05T07:26:32.977Z,67.69
2023-04-05T07:27:32.988Z,67.59
2023-04-05T07:28:32.991Z,67.21
2023-04-05T07:29:32.979Z,67.59
2023-04-05T07:30:33.002Z,67.21
2023-04-05T07:31:32.986Z,66.74
2023-04-05T07:32:33.217Z,67.12
2023-04-05T07:33:33.000Z,66.83
2023-04-05T07:34:33.017Z,66.67
2023-04-05T07:35:33.037Z,66.67
2023-04-05T07:36:33.482Z,66.30
2023-04-05T07:37:33.011Z,65.73
2023-04-05T07:38:33.015Z,65.54
2023-04-05T07:39:33.011Z,65.54
2023-04-05T07:40:33.009Z,65.25
2023-04-05T07:41:33.034Z,65.35
2023-04-05T07:42:33.026Z,64.69
2023-04-05T07:43:33.019Z,63.45
2023-04-05T07:44:33.034Z,62.69
2023-04-05T07:45:33.028Z,62.02
2023-04-05T07:46:33.099Z,61.17
2023-04-05T07:47:33.058Z,60.88
2023-04-05T07:48:33.054Z,60.60
2023-04-05T07:49:33.036Z,59.96
2023-04-05T07:50:33.056Z,59.39
2023-04-05T07:51:33.039Z,59.39
2023-04-05T07:52:33.073Z,59.39
2023-04-05T07:53:33.049Z,59.20
2023-04-05T07:54:33.055Z,58.95
2023-04-05T07:55:33.059Z,59.05
2023-04-05T07:56:33.050Z,59.14
2023-04-05T07:57:33.054Z,58.85
2023-04-05T07:58:33.057Z,57.93
2023-04-05T07:59:33.139Z,57.65
2023-04-05T08:00:33.066Z,57.20
2023-04-05T08:01:33.073Z,56.75
2023-04-05T08:02:33.183Z,55.76
2023-04-05T08:03:33.175Z,55.62
2023-04-05T08:04:33.074Z,54.66
2023-04-05T08:05:33.133Z,53.85
2023-04-05T08:06:33.110Z,52.47
2023-04-05T08:07:33.089Z,50.41
2023-04-05T08:08:33.535Z,48.83
2023-04-05T08:24:37.167Z,34.18
2023-04-05T08:33:17.881Z,29.39
2023-04-05T08:34:17.885Z,29.30
2023-04-05T08:35:17.944Z,29.01
2023-04-05T08:36:17.892Z,29.12
2023-04-05T08:37:17.897Z,28.34
2023-04-05T08:57:08.713Z,24.84
2023-04-05T08:58:08.666Z,25.04
2023-04-05T08:59:08.784Z,24.85
2023-04-05T09:00:08.681Z,24.96
2023-04-05T09:01:08.728Z,24.48
2023-04-05T09:02:08.755Z,24.48
2023-04-05T09:03:08.861Z,24.48
2023-04-05T09:04:08.741Z,23.60
2023-04-05T09:05:08.747Z,23.70
2023-04-05T09:06:08.770Z,23.32
2023-04-05T15:33:35.680Z,34.06
2023-04-05T15:34:35.669Z,33.97
2023-04-05T15:35:35.698Z,33.78
2023-04-05T15:36:35.673Z,33.87
2023-04-05T15:37:35.691Z,34.44
2023-04-05T15:38:35.690Z,34.73
2023-04-05T15:39:35.700Z,34.92
2023-04-05T15:40:35.706Z,35.22
2023-04-05T15:41:35.713Z,34.63
2023-04-05T15:42:35.727Z,34.75
2023-04-05T15:43:35.733Z,35.02
2023-04-05T15:44:35.736Z,35.51
2023-04-05T15:45:35.747Z,35.41
2023-04-05T15:46:35.920Z,34.75
2023-04-05T15:47:35.788Z,34.55
2023-04-05T15:48:35.773Z,34.46
2023-04-05T15:49:35.797Z,34.36
2023-04-05T15:50:35.793Z,34.06
2023-04-05T15:51:35.806Z,34.25
2023-04-05T15:52:35.805Z,34.25
2023-04-05T15:53:35.810Z,34.44
2023-04-05T15:54:35.820Z,34.44
2023-04-05T15:55:35.828Z,34.63
2023-04-05T15:56:35.837Z,34.73
2023-04-05T18:57:22.212Z,41.89
2023-04-05T18:58:22.198Z,41.80
2023-04-05T18:59:22.210Z,41.80
2023-04-05T19:00:22.202Z,42.35
2023-04-05T19:01:22.237Z,41.71
2023-04-05T19:02:22.219Z,41.52
2023-04-05T19:03:22.321Z,41.69
2023-04-05T19:04:22.216Z,42.07
2023-04-05T19:05:22.223Z,42.35
2023-04-05T19:06:22.225Z,42.16
2023-04-05T19:07:22.229Z,42.35
2023-04-05T19:08:22.245Z,42.44
2023-04-05T19:09:22.375Z,42.44
2023-04-05T19:10:22.250Z,42.35
2023-04-05T19:11:22.260Z,42.25
2023-04-05T19:12:22.255Z,42.35
2023-04-05T19:13:22.297Z,42.54
2023-04-05T19:14:22.266Z,42.73
2023-04-05T19:15:22.273Z,42.73
2023-04-05T19:16:22.317Z,42.92
2023-04-05T19:17:22.286Z,43.19
2023-04-05T19:18:22.285Z,43.19
2023-04-05T19:19:22.289Z,43.38
2023-04-05T19:20:22.289Z,43.95
2023-04-05T19:21:22.294Z,43.85
2023-04-05T19:22:22.302Z,43.57
2023-04-05T19:23:22.303Z,43.85
2023-04-05T19:24:22.319Z,44.26
2023-04-05T19:25:22.313Z,44.54
2023-04-05T19:26:22.745Z,44.54
2023-04-05T19:27:22.323Z,45.21
2023-04-05T20:51:43.523Z,50.01
2023-04-05T20:52:43.493Z,50.20
2023-04-05T20:53:43.501Z,50.58
2023-04-05T20:54:43.502Z,50.48
2023-04-05T20:55:43.504Z,50.48
2023-04-05T20:56:43.520Z,50.48
2023-04-05T20:57:43.515Z,50.10
2023-04-05T20:58:43.516Z,50.77
2023-04-05T20:59:43.618Z,50.77
2023-04-05T21:00:43.536Z,50.48
2023-04-05T21:01:43.596Z,50.48
2023-04-05T21:02:43.656Z,50.29
2023-04-05T21:03:43.617Z,50.48
2023-04-05T21:04:43.546Z,50.46
2023-04-05T21:05:43.546Z,50.46
2023-04-05T21:06:43.577Z,50.84
2023-04-05T21:07:43.581Z,50.93
2023-04-05T21:08:43.580Z,50.93
2023-04-05T21:09:43.561Z,50.74
2023-04-05T21:10:43.564Z,51.51
2023-04-05T21:11:43.573Z,51.79
2023-04-05T21:12:43.572Z,51.79
2023-04-05T21:13:43.576Z,52.08
2023-04-05T21:14:43.581Z,51.89
2023-04-05T21:15:43.590Z,52.08
2023-04-05T21:16:43.586Z,52.39
2023-04-05T21:17:43.613Z,52.20
2023-04-05T21:18:43.594Z,52.39
2023-04-05T21:19:43.599Z,52.67
2023-04-05T21:20:43.602Z,52.86
2023-04-05T21:21:43.610Z,52.96
2023-04-05T21:22:43.619Z,52.86
2023-04-05T21:23:43.645Z,52.96
2023-04-05T21:24:43.629Z,52.96
2023-04-05T21:25:43.626Z,52.96
2023-04-05T21:26:43.630Z,53.53
2023-04-05T21:27:43.633Z,53.53
2023-04-05T21:28:43.637Z,52.76
2023-04-05T21:29:43.640Z,52.86
2023-04-05T21:30:43.726Z,52.67
2023-04-05T21:31:43.664Z,52.86
2023-04-05T21:32:43.735Z,52.76
2023-04-05T21:33:43.661Z,52.86
2023-04-05T21:34:43.661Z,52.96
2023-04-05T21:35:43.722Z,53.05
2023-04-05T21:36:43.670Z,52.86
2023-04-05T21:37:43.673Z,52.96
2023-04-05T21:38:43.678Z,52.86
2023-04-05T21:39:43.708Z,52.93
2023-04-05T21:40:43.686Z,52.55
2023-04-05T21:41:43.700Z,53.12
2023-04-05T21:42:43.694Z,52.93
2023-04-05T21:43:43.694Z,53.12
2023-04-05T21:44:43.710Z,52.93
2023-04-05T21:45:43.713Z,53.50
2023-04-05T21:46:43.753Z,53.59
2023-04-05T21:47:43.756Z,53.59
2023-04-05T21:48:43.717Z,53.22
2023-04-05T21:49:43.722Z,53.22
2023-04-05T21:50:43.744Z,53.97
2023-04-05T21:51:43.730Z,53.78
2023-04-05T21:52:43.730Z,53.78
2023-04-05T21:53:43.737Z,53.69
2023-04-05T21:54:43.745Z,53.88
2023-04-05T21:55:43.769Z,53.88
2023-04-05T21:56:43.747Z,53.97
2023-04-05T21:57:43.784Z,53.88
2023-04-05T21:58:43.763Z,53.66
2023-04-05T21:59:43.764Z,53.95
2023-04-05T22:00:43.778Z,54.55
2023-04-05T22:01:43.815Z,54.55
2023-04-05T22:02:43.766Z,54.43
2023-04-05T22:03:43.791Z,54.43
2023-04-05T22:04:43.776Z,54.36
2023-04-05T22:05:43.781Z,54.74
2023-04-05T22:06:43.783Z,54.93
2023-04-05T22:07:43.821Z,54.55
2023-04-05T22:08:43.791Z,54.83
2023-04-05T22:09:43.793Z,54.93
2023-04-05T22:10:43.839Z,54.93
2023-04-05T22:11:43.836Z,55.11
2023-04-05T22:12:43.805Z,55.21
2023-04-05T22:13:43.812Z,55.21
2023-04-05T22:14:43.813Z,55.50
2023-04-05T22:15:43.815Z,55.69
2023-04-05T22:16:43.869Z,55.97
2023-04-05T22:17:43.841Z,55.85
2023-04-05T22:18:43.826Z,55.69
2023-04-05T22:19:43.879Z,56.35
2023-04-05T22:20:43.834Z,56.16
2023-04-05T22:21:43.963Z,56.16
2023-04-05T22:22:43.850Z,55.97
2023-04-05T22:23:43.845Z,56.23
2023-04-05T22:24:43.854Z,56.13
2023-04-05T22:25:43.852Z,56.51
2023-04-05T22:26:43.857Z,56.80
2023-04-05T22:27:43.898Z,56.70
2023-04-05T22:28:43.859Z,56.70
2023-04-05T22:29:43.862Z,56.70
2023-04-05T22:30:44.563Z,56.89
2023-04-05T22:31:43.940Z,57.18
2023-04-05T22:32:43.947Z,57.18
2023-04-05T22:33:43.886Z,57.18
2023-04-05T22:34:43.883Z,57.46
2023-04-05T22:35:43.900Z,57.28
2023-04-05T22:36:43.890Z,57.28
2023-04-05T22:37:43.890Z,57.56
2023-04-05T22:38:43.916Z,57.37
2023-04-05T22:39:43.896Z,57.84
2023-04-05T22:40:43.899Z,57.65
2023-04-05T22:41:43.915Z,58.03
2023-04-05T22:42:43.908Z,57.94
2023-04-05T22:43:43.933Z,58.03
2023-04-05T22:44:43.915Z,57.94
2023-04-05T22:45:43.940Z,57.84
2023-04-05T22:46:43.919Z,57.84
2023-04-05T22:47:43.959Z,58.03
2023-04-05T22:48:43.940Z,58.32
2023-04-05T22:49:43.934Z,58.51
2023-04-05T22:50:43.934Z,58.51
2023-04-05T22:51:43.941Z,58.61
2023-04-05T22:52:43.941Z,58.80
2023-04-05T22:53:43.961Z,59.17
2023-04-05T22:54:43.947Z,59.27
2023-04-05T22:55:43.952Z,59.55
2023-04-05T22:56:43.965Z,59.36
2023-04-05T22:57:43.969Z,59.46
2023-04-05T22:58:43.963Z,59.55
2023-04-05T22:59:44.092Z,59.55
2023-04-05T23:00:43.969Z,59.55
2023-04-05T23:01:44.029Z,60.03
2023-04-05T23:02:44.032Z,60.03
2023-04-05T23:03:43.979Z,59.46
2023-04-05T23:04:44.039Z,59.65
2023-04-05T23:05:43.986Z,59.84
2023-04-05T23:06:44.000Z,59.65
2023-04-05T23:07:43.997Z,59.36
2023-04-05T23:08:44.001Z,59.55
2023-04-05T23:09:44.002Z,59.55
2023-04-05T23:10:44.032Z,59.74
2023-04-05T23:11:44.013Z,59.93
2023-04-05T23:12:44.010Z,59.84
2023-04-05T23:13:44.016Z,59.74
2023-04-05T23:14:44.020Z,59.84
2023-04-05T23:15:44.059Z,59.84
2023-04-05T23:16:44.030Z,59.65
2023-04-05T23:17:44.047Z,60.22
2023-04-05T23:18:44.037Z,60.13
2023-04-05T23:19:44.036Z,60.50
2023-04-05T23:20:44.038Z,60.41
2023-04-05T23:21:44.047Z,60.41
2023-04-05T23:22:44.043Z,60.50
2023-04-05T23:23:44.052Z,60.79
2023-04-05T23:24:44.054Z,60.69
2023-04-05T23:25:44.054Z,60.69
2023-04-05T23:26:44.057Z,60.60
2023-04-05T23:27:44.062Z,60.69
2023-04-05T23:30:06.684Z,60.95
2023-04-05T23:31:06.734Z,60.57
2023-04-05T23:32:06.691Z,61.04
2023-04-05T23:33:06.727Z,61.04
2023-04-05T23:34:08.314Z,61.14
2023-04-05T23:35:06.701Z,61.33
2023-04-05T23:36:06.739Z,61.33
2023-04-05T23:37:06.705Z,61.14
2023-04-05T23:42:45.907Z,61.61
2023-04-05T23:43:45.924Z,61.61
2023-04-05T23:44:45.920Z,61.90
